Time;durP1;ratioP1;P1;durP2;ratioP2;P2;SDS_P1;SDS_P2;PMS_P1;PMS_P2;Temp;Humidity;BMP_temperature;BMP_pressure;BME280_temperature;BME280_humidity;BME280_pressure;Samples;Min_cycle;Max_cycle;Signal;HPM_P1;HPM_P2
2022/10/03 00:01:08;;;;;;;13.82;2.83;;;10.30;99.90;;;;;;4869239;29;20069;-88
2022/10/03 00:04:05;;;;;;;24.15;3.45;;;10.30;99.90;;;;;;4855501;29;20053;-89
2022/10/03 00:06:43;;;;;;;12.35;2.75;;;10.30;99.90;;;;;;4897031;29;20039;-88
2022/10/03 00:09:29;;;;;;;10.63;2.85;;;10.40;99.90;;;;;;4871777;29;20134;-89
2022/10/03 00:12:58;;;;;;;13.63;2.20;;;10.40;99.90;;;;;;4866404;29;20042;-87
2022/10/03 00:15:32;;;;;;;17.95;3.45;;;10.50;99.90;;;;;;4848897;29;20481;-88
2022/10/03 00:18:13;;;;;;;14.18;3.30;;;10.60;99.90;;;;;;4852210;29;20059;-88
2022/10/03 00:21:22;;;;;;;23.20;3.38;;;10.60;99.90;;;;;;4853698;29;20474;-88
2022/10/03 00:24:04;;;;;;;17.35;3.60;;;10.60;99.90;;;;;;4840073;29;20061;-89
2022/10/03 00:26:54;;;;;;;17.08;2.92;;;10.70;99.90;;;;;;4885317;29;20059;-89
2022/10/03 00:29:31;;;;;;;10.40;2.58;;;10.70;99.90;;;;;;4883717;29;20049;-88
2022/10/03 00:32:16;;;;;;;12.63;3.20;;;10.80;99.90;;;;;;4882800;29;20037;-89
2022/10/03 00:34:51;;;;;;;12.60;2.78;;;10.80;99.90;;;;;;4862262;29;20378;-88
2022/10/03 00:37:32;;;;;;;13.98;2.88;;;10.90;99.90;;;;;;4897560;29;20512;-89
2022/10/03 00:40:35;;;;;;;16.67;2.78;;;10.80;99.90;;;;;;4845728;29;20406;-89
2022/10/03 00:43:32;;;;;;;12.43;2.78;;;11.00;99.90;;;;;;4879651;29;20200;-88
2022/10/03 00:46:19;;;;;;;16.70;2.85;;;11.00;99.90;;;;;;4897246;29;20470;-90
2022/10/03 00:49:19;;;;;;;15.80;2.95;;;11.10;99.90;;;;;;4887256;29;20129;-89
2022/10/03 00:52:03;;;;;;;15.05;3.08;;;11.00;99.90;;;;;;4900194;29;20074;-89
2022/10/03 00:54:47;;;;;;;15.23;2.67;;;11.10;99.90;;;;;;4898607;29;20037;-89
2022/10/03 00:57:34;;;;;;;10.55;2.88;;;11.20;99.90;;;;;;4899331;29;20038;-88
2022/10/03 01:00:16;;;;;;;13.07;2.70;;;11.10;99.90;;;;;;4896281;29;20533;-90
2022/10/03 01:03:03;;;;;;;17.15;2.83;;;11.10;99.90;;;;;;4875517;29;20678;-88
2022/10/03 01:05:46;;;;;;;15.35;2.83;;;11.20;99.90;;;;;;4820909;29;20072;-90
2022/10/03 01:08:57;;;;;;;15.15;2.80;;;11.10;99.90;;;;;;4888444;29;20041;-87
2022/10/03 01:11:46;;;;;;;13.13;2.40;;;11.30;99.90;;;;;;4764731;29;20058;-89
2022/10/03 01:14:58;;;;;;;16.98;3.15;;;11.20;99.90;;;;;;4799455;29;20070;-89
2022/10/03 01:17:34;;;;;;;11.55;2.50;;;11.10;99.90;;;;;;4870411;29;20045;-89
2022/10/03 01:20:25;;;;;;;9.77;2.40;;;11.20;99.90;;;;;;4890086;29;20573;-89
2022/10/03 01:23:19;;;;;;;16.25;2.78;;;11.20;99.90;;;;;;4831860;29;20049;-88
2022/10/03 01:25:57;;;;;;;11.68;2.50;;;11.10;99.90;;;;;;4873020;29;20073;-88
2022/10/03 01:32:11;;;;;;;13.85;2.63;;;11.30;99.90;;;;;;4889861;29;20076;-88
2022/10/03 01:35:01;;;;;;;11.20;2.55;;;11.10;99.90;;;;;;4886271;29;20037;-89
2022/10/03 01:37:57;;;;;;;12.40;3.00;;;11.10;99.90;;;;;;4859578;29;20037;-89
2022/10/03 01:40:42;;;;;;;9.63;2.45;;;11.20;99.90;;;;;;4885896;29;20048;-89
2022/10/03 01:43:21;;;;;;;13.65;2.30;;;11.20;99.90;;;;;;4856675;29;20042;-89
2022/10/03 01:46:17;;;;;;;13.02;2.60;;;11.00;99.90;;;;;;4885065;29;20139;-89
2022/10/03 01:49:04;;;;;;;11.65;2.50;;;11.20;99.90;;;;;;4872798;29;20033;-89
2022/10/03 01:51:57;;;;;;;14.40;2.92;;;11.00;99.90;;;;;;4874042;29;20046;-89
2022/10/03 01:54:53;;;;;;;18.55;2.78;;;11.00;99.90;;;;;;4885479;29;20434;-88
2022/10/03 01:57:41;;;;;;;16.30;2.83;;;11.10;99.90;;;;;;4868598;29;20398;-88
2022/10/03 02:00:12;;;;;;;14.68;2.58;;;11.00;99.90;;;;;;4839187;29;20061;-88
2022/10/03 02:02:49;;;;;;;11.50;2.25;;;11.00;99.90;;;;;;4847295;29;20089;-88
2022/10/03 02:05:26;;;;;;;11.68;2.38;;;11.00;99.90;;;;;;4863894;29;20053;-88
2022/10/03 02:08:04;;;;;;;22.98;3.40;;;10.90;99.90;;;;;;4854173;29;20045;-87
2022/10/03 02:10:54;;;;;;;14.23;2.42;;;10.90;99.90;;;;;;4883380;29;20137;-89
2022/10/03 02:13:47;;;;;;;12.98;3.25;;;10.70;99.90;;;;;;4868538;29;20056;-88
2022/10/03 02:16:42;;;;;;;12.25;2.60;;;10.70;99.90;;;;;;4854386;29;20046;-89
2022/10/03 02:19:11;;;;;;;14.73;2.38;;;10.70;99.90;;;;;;4871735;29;20036;-89
2022/10/03 02:21:55;;;;;;;14.00;2.50;;;10.80;99.90;;;;;;4872180;29;20041;-88
2022/10/03 02:24:39;;;;;;;13.95;2.95;;;10.80;99.90;;;;;;4848384;29;20453;-88
2022/10/03 02:27:05;;;;;;;12.40;2.30;;;10.90;99.90;;;;;;4854826;29;20046;-89
2022/10/03 02:29:57;;;;;;;11.52;2.47;;;10.70;99.90;;;;;;4869179;29;20511;-89
2022/10/03 02:32:47;;;;;;;12.85;2.22;;;10.80;99.90;;;;;;4867135;29;20069;-88
2022/10/03 02:35:34;;;;;;;8.60;2.25;;;10.90;99.90;;;;;;4854553;29;20041;-89
2022/10/03 02:38:28;;;;;;;9.68;2.17;;;10.90;99.90;;;;;;4853025;29;20052;-89
2022/10/03 02:41:20;;;;;;;16.30;2.58;;;10.70;99.90;;;;;;4877678;29;20050;-89
2022/10/03 02:44:18;;;;;;;17.02;2.42;;;10.70;99.90;;;;;;4854696;29;20079;-89
2022/10/03 02:47:27;;;;;;;18.50;2.60;;;10.80;99.90;;;;;;4881245;29;20529;-89
2022/10/03 02:49:52;;;;;;;12.30;2.38;;;10.80;99.90;;;;;;4862589;29;20443;-90
2022/10/03 02:52:37;;;;;;;12.57;2.42;;;10.90;99.90;;;;;;4881240;29;20101;-90
2022/10/03 02:55:21;;;;;;;10.18;2.00;;;10.90;99.90;;;;;;4870445;29;20052;-89
2022/10/03 02:57:54;;;;;;;11.20;2.35;;;11.00;99.90;;;;;;4864024;29;20120;-89
2022/10/03 03:00:42;;;;;;;10.43;2.58;;;11.00;99.90;;;;;;4870418;29;20388;-89
2022/10/03 03:03:27;;;;;;;13.20;2.10;;;10.90;99.90;;;;;;4871285;29;22116;-88
2022/10/03 03:06:05;;;;;;;13.00;2.92;;;11.00;99.90;;;;;;4838004;29;20076;-90
2022/10/03 03:08:50;;;;;;;11.85;2.20;;;11.10;99.90;;;;;;4881655;29;20041;-90
2022/10/03 03:12:07;;;;;;;17.98;2.72;;;11.10;99.90;;;;;;4886210;29;20064;-89
2022/10/03 03:14:56;;;;;;;13.25;2.13;;;11.20;99.90;;;;;;4843734;29;20962;-89
2022/10/03 03:17:30;;;;;;;11.63;2.40;;;11.20;99.90;;;;;;4896680;29;20037;-90
2022/10/03 03:19:59;;;;;;;14.93;2.88;;;11.30;99.90;;;;;;4874889;29;20112;-89
2022/10/03 03:22:50;;;;;;;12.25;2.20;;;11.40;99.90;;;;;;4885589;29;20080;-88
2022/10/03 03:25:35;;;;;;;13.30;2.22;;;11.50;99.90;;;;;;4883003;29;20150;-89
2022/10/03 03:28:22;;;;;;;12.63;2.47;;;11.40;99.90;;;;;;4883747;29;20056;-88
2022/10/03 03:31:09;;;;;;;8.77;1.95;;;11.60;99.90;;;;;;4870629;29;20053;-89
2022/10/03 03:33:35;;;;;;;12.02;2.30;;;11.50;99.90;;;;;;4874655;29;20052;-89
2022/10/03 03:36:28;;;;;;;9.23;2.38;;;11.50;99.90;;;;;;4855791;29;20041;-89
2022/10/03 03:39:33;;;;;;;14.00;2.40;;;11.70;99.90;;;;;;4885550;29;20744;-89
2022/10/03 03:42:41;;;;;;;12.60;2.13;;;11.70;99.90;;;;;;4897018;29;20053;-89
2022/10/03 03:45:41;;;;;;;10.70;2.47;;;11.70;99.90;;;;;;4823556;29;20047;-89
2022/10/03 03:48:25;;;;;;;11.70;2.25;;;11.50;99.90;;;;;;4831659;29;20116;-89
2022/10/03 03:51:33;;;;;;;10.80;2.08;;;11.60;99.90;;;;;;4869866;29;20053;-89
2022/10/03 03:54:31;;;;;;;9.15;1.95;;;11.50;99.90;;;;;;4854321;29;20052;-89
2022/10/03 03:57:00;;;;;;;7.90;1.88;;;11.70;99.90;;;;;;4865238;29;20045;-89
2022/10/03 03:59:38;;;;;;;9.88;2.17;;;11.50;99.90;;;;;;4842344;29;20085;-88
2022/10/03 04:02:29;;;;;;;12.80;2.30;;;11.50;99.90;;;;;;4881574;29;20072;-89
2022/10/03 04:05:23;;;;;;;11.70;2.60;;;11.50;99.90;;;;;;4856607;29;20064;-88
2022/10/03 04:08:11;;;;;;;9.82;2.10;;;11.60;99.90;;;;;;4883101;29;20557;-90
2022/10/03 04:10:56;;;;;;;7.70;2.03;;;11.50;99.90;;;;;;4880048;29;20053;-89
2022/10/03 04:13:46;;;;;;;11.07;2.10;;;11.40;99.90;;;;;;4865215;29;20057;-88
2022/10/03 04:19:32;;;;;;;15.07;2.38;;;11.40;99.90;;;;;;4871075;29;20045;-88
2022/10/03 04:22:10;;;;;;;14.70;2.55;;;11.40;99.90;;;;;;4851921;29;20122;-90
2022/10/03 04:25:16;;;;;;;10.75;2.08;;;11.40;99.90;;;;;;4881329;29;20076;-88
2022/10/03 04:28:05;;;;;;;8.98;2.15;;;11.40;99.90;;;;;;4880126;29;20657;-89
2022/10/03 04:30:37;;;;;;;9.82;2.50;;;11.40;99.90;;;;;;4868211;29;20070;-89
2022/10/03 04:33:20;;;;;;;9.10;2.05;;;11.30;99.90;;;;;;4881767;29;20045;-88
2022/10/03 04:35:49;;;;;;;12.20;2.13;;;11.40;99.90;;;;;;4853103;29;20549;-88
2022/10/03 04:38:35;;;;;;;8.50;1.98;;;11.40;99.90;;;;;;4853434;29;20113;-90
2022/10/03 04:41:28;;;;;;;9.38;2.50;;;11.40;99.90;;;;;;4868524;29;20046;-89
2022/10/03 04:44:13;;;;;;;9.77;2.25;;;11.40;99.90;;;;;;4879641;29;20057;-88
2022/10/03 04:46:51;;;;;;;8.27;2.00;;;11.30;99.90;;;;;;4878163;29;20058;-88
2022/10/03 04:49:41;;;;;;;8.57;2.28;;;11.30;99.90;;;;;;4865950;29;20497;-88
2022/10/03 04:52:41;;;;;;;13.43;2.50;;;11.20;99.90;;;;;;4879508;29;20056;-88
2022/10/03 04:55:34;;;;;;;10.05;1.90;;;11.30;99.90;;;;;;4850801;29;20140;-89
2022/10/03 04:58:14;;;;;;;15.90;2.28;;;11.20;99.90;;;;;;4850176;29;20044;-88
2022/10/03 05:01:11;;;;;;;8.30;2.30;;;11.10;99.90;;;;;;4869566;29;20037;-89
2022/10/03 05:04:03;;;;;;;8.63;2.00;;;11.20;99.90;;;;;;4883332;29;20285;-88
2022/10/03 05:06:42;;;;;;;16.83;2.38;;;11.00;99.90;;;;;;4871580;29;20037;-88
2022/10/03 05:09:38;;;;;;;9.25;2.35;;;11.10;99.90;;;;;;4854355;29;20040;-89
2022/10/03 05:12:36;;;;;;;11.93;2.60;;;10.90;99.90;;;;;;4882482;29;20049;-89
2022/10/03 05:15:26;;;;;;;10.27;2.05;;;10.70;99.90;;;;;;4855311;29;20068;-89
2022/10/03 05:18:07;;;;;;;12.80;2.30;;;10.80;99.90;;;;;;4866491;29;20043;-89
2022/10/03 05:20:53;;;;;;;12.30;2.92;;;10.60;99.90;;;;;;4854476;29;20053;-89
2022/10/03 05:23:40;;;;;;;13.30;2.65;;;10.50;99.90;;;;;;4856063;29;20050;-89
2022/10/03 05:26:32;;;;;;;9.55;2.65;;;10.50;99.90;;;;;;4895295;29;20527;-88
2022/10/03 05:29:13;;;;;;;15.30;2.63;;;10.50;99.90;;;;;;4868846;29;20409;-88
2022/10/03 05:31:56;;;;;;;14.27;2.38;;;10.50;99.90;;;;;;4882961;29;20056;-89
2022/10/03 05:34:36;;;;;;;7.55;2.17;;;10.30;99.90;;;;;;4880562;29;20524;-89
2022/10/03 05:37:24;;;;;;;8.18;2.30;;;10.20;99.90;;;;;;4890479;29;20073;-89
2022/10/03 05:39:59;;;;;;;8.70;2.08;;;10.20;99.90;;;;;;4870322;29;20071;-89
2022/10/03 05:42:35;;;;;;;8.23;2.20;;;10.30;99.90;;;;;;4887084;29;20174;-89
2022/10/03 05:45:25;;;;;;;12.40;2.22;;;10.10;99.90;;;;;;4859107;29;20100;-88
2022/10/03 05:48:09;;;;;;;7.30;1.75;;;10.10;99.90;;;;;;4861490;29;20049;-89
2022/10/03 05:51:05;;;;;;;9.82;2.70;;;10.20;99.90;;;;;;4856497;29;20193;-89
2022/10/03 05:53:55;;;;;;;8.43;2.05;;;10.10;99.90;;;;;;4874037;29;20437;-88
2022/10/03 05:56:45;;;;;;;15.88;2.50;;;10.00;99.90;;;;;;4887242;29;20136;-88
2022/10/03 05:59:48;;;;;;;11.27;2.30;;;9.90;99.90;;;;;;4893005;29;20071;-89
2022/10/03 06:02:43;;;;;;;7.32;2.13;;;10.00;99.90;;;;;;4884571;29;20059;-89
2022/10/03 06:05:25;;;;;;;9.55;2.42;;;9.90;99.90;;;;;;4902274;29;20050;-89
2022/10/03 06:08:09;;;;;;;7.78;2.30;;;10.00;99.90;;;;;;4888202;29;20156;-88
2022/10/03 06:10:44;;;;;;;11.73;2.65;;;9.80;99.90;;;;;;4874279;29;20450;-89
2022/10/03 06:13:31;;;;;;;11.70;2.35;;;9.90;99.90;;;;;;4887890;29;20048;-90
2022/10/03 06:16:13;;;;;;;13.45;2.40;;;9.90;99.90;;;;;;4885152;29;20037;-88
2022/10/03 06:19:43;;;;;;;11.35;2.15;;;10.00;99.90;;;;;;4888097;29;20080;-88
2022/10/03 06:22:47;;;;;;;10.27;2.78;;;9.90;99.90;;;;;;4841136;29;20053;-88
2022/10/03 06:25:34;;;;;;;10.43;2.50;;;10.10;99.90;;;;;;4887180;29;20063;-88
2022/10/03 06:28:37;;;;;;;13.40;2.80;;;10.00;99.90;;;;;;4895742;29;20072;-89
2022/10/03 06:31:21;;;;;;;13.57;2.42;;;10.20;99.90;;;;;;4869669;29;20048;-89
2022/10/03 06:34:00;;;;;;;9.75;2.72;;;10.40;99.90;;;;;;4882431;29;20053;-89
2022/10/03 06:37:03;;;;;;;10.60;2.38;;;10.30;99.90;;;;;;4903214;29;20167;-89
2022/10/03 06:40:17;;;;;;;14.57;2.47;;;10.40;99.90;;;;;;4871154;29;20555;-88
2022/10/03 06:42:50;;;;;;;11.25;2.20;;;10.60;99.90;;;;;;4871213;29;20053;-90
2022/10/03 06:45:34;;;;;;;10.15;2.58;;;10.60;99.90;;;;;;4885070;29;20377;-89
2022/10/03 06:48:16;;;;;;;7.43;2.40;;;10.60;99.90;;;;;;4887621;29;20044;-88
2022/10/03 06:51:23;;;;;;;8.23;2.20;;;10.60;99.90;;;;;;4887332;29;20053;-89
2022/10/03 06:54:22;;;;;;;12.40;2.67;;;10.70;99.90;;;;;;4896601;29;20045;-90
2022/10/03 06:57:20;;;;;;;9.65;2.25;;;10.90;99.90;;;;;;4888511;29;20037;-91
2022/10/03 07:00:05;;;;;;;13.90;3.15;;;10.90;99.90;;;;;;4848073;29;20057;-90
2022/10/03 07:02:40;;;;;;;9.23;2.42;;;11.00;99.90;;;;;;4880100;29;20049;-90
2022/10/03 07:05:19;;;;;;;7.63;2.30;;;11.10;99.90;;;;;;4858500;29;20040;-89
2022/10/03 07:08:19;;;;;;;9.98;2.17;;;11.10;99.90;;;;;;4885156;29;20124;-90
2022/10/03 07:11:18;;;;;;;10.85;2.20;;;11.10;99.90;;;;;;4853423;29;20057;-89
2022/10/03 07:13:55;;;;;;;7.90;2.25;;;11.20;99.90;;;;;;4868408;29;20064;-90
2022/10/03 07:16:23;;;;;;;6.50;1.98;;;11.50;99.90;;;;;;4855163;29;20047;-89
2022/10/03 07:19:19;;;;;;;8.38;2.13;;;11.40;99.90;;;;;;4867326;29;20109;-91
2022/10/03 07:22:32;;;;;;;9.98;2.03;;;11.60;99.90;;;;;;4854483;29;20205;-90
2022/10/03 07:25:33;;;;;;;11.82;2.67;;;11.80;99.90;;;;;;4833393;29;20049;-89
2022/10/03 07:28:41;;;;;;;8.55;2.22;;;11.80;99.90;;;;;;4854114;29;20052;-89
2022/10/03 07:31:15;;;;;;;10.60;2.00;;;11.90;99.90;;;;;;4838185;29;20137;-89
2022/10/03 07:33:44;;;;;;;12.32;2.42;;;12.00;99.90;;;;;;4884450;29;20190;-89
2022/10/03 07:39:15;;;;;;;10.70;2.53;;;12.30;99.90;;;;;;4871204;29;20434;-90
2022/10/03 07:42:11;;;;;;;5.97;1.75;;;12.40;99.90;;;;;;4865584;29;20048;-89
2022/10/03 07:44:51;;;;;;;7.45;2.15;;;12.40;99.90;;;;;;4869630;29;20052;-89
2022/10/03 07:47:51;;;;;;;7.35;1.77;;;12.60;99.90;;;;;;4865833;29;20060;-89
2022/10/03 07:50:51;;;;;;;11.82;2.45;;;12.70;99.90;;;;;;4853266;29;20529;-89
2022/10/03 07:53:57;;;;;;;14.35;2.17;;;12.80;99.90;;;;;;4879498;29;20141;-90
2022/10/03 07:56:26;;;;;;;10.00;2.65;;;12.80;99.90;;;;;;4856871;29;20577;-89
2022/10/03 07:59:09;;;;;;;9.70;2.17;;;12.90;99.90;;;;;;4880004;29;20687;-91
2022/10/03 08:01:57;;;;;;;7.13;1.85;;;13.10;99.90;;;;;;4881279;29;20049;-89
2022/10/03 08:05:05;;;;;;;6.88;1.90;;;13.10;99.90;;;;;;4883813;29;20049;-89
2022/10/03 08:07:50;;;;;;;5.47;1.65;;;13.40;99.90;;;;;;4856556;29;20045;-88
2022/10/03 08:10:37;;;;;;;9.03;1.87;;;13.30;99.90;;;;;;4880747;29;20072;-91
2022/10/03 08:13:17;;;;;;;9.50;1.83;;;13.60;99.90;;;;;;4881082;29;20649;-89
2022/10/03 08:15:52;;;;;;;8.48;2.08;;;13.80;99.90;;;;;;4882787;29;20074;-89
2022/10/03 08:18:50;;;;;;;7.13;1.45;;;13.80;99.90;;;;;;4884202;29;20151;-89
2022/10/03 08:21:49;;;;;;;9.65;2.03;;;13.80;99.90;;;;;;4866749;29;20041;-90
2022/10/03 08:24:26;;;;;;;8.82;2.25;;;14.00;99.90;;;;;;4865225;29;20073;-90
2022/10/03 08:27:03;;;;;;;9.23;2.25;;;14.30;99.90;;;;;;4879663;29;20054;-89
2022/10/03 08:29:39;;;;;;;8.65;1.90;;;14.30;99.90;;;;;;4864094;29;20046;-89
2022/10/03 08:32:36;;;;;;;10.48;1.63;;;14.30;99.90;;;;;;4874162;29;20134;-91
2022/10/03 08:35:38;;;;;;;8.35;1.63;;;14.50;99.90;;;;;;4853709;29;20140;-89
2022/10/03 08:38:22;;;;;;;10.93;1.80;;;14.60;99.90;;;;;;4839020;29;20042;-89
2022/10/03 08:41:07;;;;;;;7.00;1.40;;;14.60;99.90;;;;;;4856679;29;20049;-88
2022/10/03 08:44:01;;;;;;;10.63;1.83;;;14.80;99.90;;;;;;4867453;29;20060;-88
2022/10/03 08:46:51;;;;;;;7.90;1.67;;;14.90;99.90;;;;;;4872939;29;20050;-88
2022/10/03 08:49:29;;;;;;;7.20;1.63;;;14.90;99.90;;;;;;4879692;29;20135;-88
2022/10/03 08:52:03;;;;;;;7.22;1.65;;;15.10;99.90;;;;;;4872659;29;20048;-88
2022/10/03 08:54:50;;;;;;;8.05;1.70;;;15.20;99.90;;;;;;4878956;29;20341;-88
2022/10/03 08:57:45;;;;;;;4.65;1.38;;;15.20;99.90;;;;;;4851820;29;20498;-88
2022/10/03 09:00:17;;;;;;;13.05;2.22;;;15.40;99.90;;;;;;4884352;29;20061;-88
2022/10/03 09:03:01;;;;;;;9.13;1.70;;;15.40;99.90;;;;;;4855708;29;20045;-89
2022/10/03 09:05:58;;;;;;;7.85;2.35;;;15.60;99.90;;;;;;4863368;29;20165;-88
2022/10/03 09:09:00;;;;;;;14.07;2.05;;;15.50;99.90;;;;;;4863609;29;20101;-88
2022/10/03 09:12:00;;;;;;;13.73;1.85;;;15.50;99.90;;;;;;4873034;29;20049;-87
2022/10/03 09:14:26;;;;;;;6.43;1.40;;;15.80;99.90;;;;;;4870315;29;20041;-88
2022/10/03 09:17:08;;;;;;;8.23;1.50;;;15.80;99.90;;;;;;4867906;29;20311;-89
2022/10/03 09:20:12;;;;;;;8.85;1.45;;;15.70;24.60;;;;;;4891453;29;20513;-88
2022/10/03 09:22:58;;;;;;;7.38;1.80;;;15.80;99.90;;;;;;4898239;29;20152;-88
2022/10/03 09:25:43;;;;;;;10.40;1.80;;;15.90;99.90;;;;;;4885145;29;20053;-89
2022/10/03 09:28:46;;;;;;;10.07;1.57;;;15.90;99.90;;;;;;4874235;29;20061;-89
2022/10/03 09:31:41;;;;;;;6.85;1.70;;;15.90;99.90;;;;;;4883901;29;20107;-88
2022/10/03 09:34:31;;;;;;;9.23;1.60;;;16.10;45.00;;;;;;4865182;29;20065;-88
2022/10/03 09:37:30;;;;;;;13.75;2.22;;;16.00;99.90;;;;;;4872712;29;20148;-89
2022/10/03 09:40:15;;;;;;;6.93;1.65;;;16.40;1.00;;;;;;4869273;29;20061;-89
2022/10/03 09:43:00;;;;;;;5.43;1.55;;;16.40;1.00;;;;;;4895232;29;20119;-88
2022/10/03 09:45:44;;;;;;;7.47;1.60;;;16.40;99.90;;;;;;4893744;29;20037;-88
2022/10/03 09:48:31;;;;;;;7.38;1.25;;;16.50;1.00;;;;;;4884666;29;20124;-88
2022/10/03 09:51:20;;;;;;;6.07;1.52;;;16.40;99.90;;;;;;4858662;29;20049;-87
2022/10/03 09:54:08;;;;;;;5.57;1.60;;;16.40;1.00;;;;;;4830935;29;20169;-89
2022/10/03 09:56:52;;;;;;;6.03;1.73;;;16.60;99.90;;;;;;4852121;29;20092;-87
2022/10/03 09:59:18;;;;;;;4.68;1.45;;;16.60;1.00;;;;;;4839921;29;20797;-88
2022/10/03 10:02:25;;;;;;;3.75;1.20;;;16.70;38.60;;;;;;4830931;29;20057;-87
2022/10/03 10:05:33;;;;;;;6.07;1.65;;;16.80;1.00;;;;;;4816659;29;20038;-88
2022/10/03 10:08:20;;;;;;;10.23;2.08;;;16.70;1.00;;;;;;4844493;29;20077;-89
2022/10/03 10:11:12;;;;;;;7.28;1.83;;;16.70;99.90;;;;;;4844730;29;20046;-88
2022/10/03 10:14:09;;;;;;;5.57;1.60;;;16.80;99.90;;;;;;4829191;29;20279;-86
2022/10/03 10:16:53;;;;;;;6.47;1.58;;;16.90;99.90;;;;;;4826405;29;20048;-88
2022/10/03 10:19:50;;;;;;;10.98;1.88;;;17.00;99.90;;;;;;4830504;29;20073;-88
2022/10/03 10:22:45;;;;;;;3.53;1.45;;;17.20;1.00;;;;;;4854011;29;20120;-88
2022/10/03 10:25:45;;;;;;;6.00;1.25;;;17.20;34.90;;;;;;4824247;29;20113;-87
2022/10/03 10:28:30;;;;;;;4.57;1.17;;;17.00;99.90;;;;;;4836357;29;20055;-87
2022/10/03 10:31:26;;;;;;;6.73;1.60;;;17.00;99.90;;;;;;4824591;29;20045;-87
2022/10/03 10:33:55;;;;;;;5.57;1.27;;;17.20;99.90;;;;;;4846380;29;20297;-88
2022/10/03 10:36:45;;;;;;;6.60;1.20;;;17.20;99.90;;;;;;4860988;29;20042;-88
2022/10/03 10:39:35;;;;;;;5.07;1.25;;;17.30;99.90;;;;;;4829812;29;20042;-86
2022/10/03 10:42:38;;;;;;;4.75;1.40;;;17.30;99.90;;;;;;4829157;29;20045;-88
2022/10/03 10:45:23;;;;;;;8.52;1.60;;;17.40;1.00;;;;;;4831436;29;20054;-88
2022/10/03 10:48:03;;;;;;;4.38;1.10;;;17.30;99.90;;;;;;4838420;29;20093;-87
2022/10/03 10:51:04;;;;;;;8.18;1.40;;;17.30;45.30;;;;;;4861481;29;20049;-89
2022/10/03 10:54:14;;;;;;;5.00;1.40;;;17.30;99.90;;;;;;4845832;29;20046;-87
2022/10/03 10:57:19;;;;;;;6.75;1.20;;;17.30;99.90;;;;;;4794265;29;20054;-87
2022/10/03 11:00:14;;;;;;;5.80;1.08;;;17.50;99.90;;;;;;4806594;29;20054;-88
2022/10/03 11:03:04;;;;;;;4.75;1.20;;;17.40;99.90;;;;;;4830309;29;20054;-88
2022/10/03 11:06:04;;;;;;;4.57;1.23;;;17.40;99.90;;;;;;4852857;29;20052;-87
2022/10/03 11:08:33;;;;;;;5.28;1.48;;;17.40;99.90;;;;;;4884866;29;20401;-88
2022/10/03 11:11:17;;;;;;;6.55;1.38;;;17.30;1.00;;;;;;4868689;29;20049;-87
2022/10/03 11:14:15;;;;;;;8.05;1.83;;;17.50;95.50;;;;;;4884996;29;20486;-87
2022/10/03 11:17:18;;;;;;;5.32;1.10;;;17.70;1.00;;;;;;4846075;29;20079;-88
2022/10/03 11:20:21;;;;;;;7.53;1.48;;;17.80;1.00;;;;;;4867752;29;20125;-88
2022/10/03 11:22:56;;;;;;;5.07;1.33;;;17.80;99.90;;;;;;4866046;29;20101;-87
2022/10/03 11:25:59;;;;;;;6.68;1.40;;;17.70;1.00;;;;;;4846143;29;20450;-88
2022/10/03 11:29:03;;;;;;;6.18;0.98;;;17.60;1.00;;;;;;4849062;29;20089;-87
2022/10/03 11:31:40;;;;;;;9.25;1.33;;;17.80;68.00;;;;;;4864885;29;20128;-87
2022/10/03 11:34:27;;;;;;;7.15;1.40;;;17.70;1.00;;;;;;4864303;29;20085;-87
2022/10/03 11:36:53;;;;;;;3.88;1.10;;;17.80;1.00;;;;;;4849423;29;20045;-87
2022/10/03 11:39:40;;;;;;;4.50;1.17;;;17.90;99.90;;;;;;4847325;29;20049;-87
2022/10/03 11:42:24;;;;;;;4.72;1.38;;;18.10;41.10;;;;;;4876939;29;20045;-87
2022/10/03 11:45:03;;;;;;;5.78;1.85;;;18.10;99.90;;;;;;4860879;29;20041;-87
2022/10/03 11:47:44;;;;;;;5.22;1.23;;;18.00;99.90;;;;;;4861736;29;20351;-87
2022/10/03 11:50:34;;;;;;;6.20;1.17;;;18.30;99.90;;;;;;4877429;29;20102;-87
2022/10/03 11:53:14;;;;;;;5.07;1.10;;;18.50;99.90;;;;;;4862967;29;20435;-87
2022/10/03 11:56:02;;;;;;;6.88;1.40;;;18.20;99.90;;;;;;4851933;29;20397;-87
2022/10/03 11:58:49;;;;;;;4.72;1.20;;;18.40;99.90;;;;;;4858447;29;20171;-87
2022/10/03 12:01:29;;;;;;;6.10;1.40;;;18.40;99.90;;;;;;4831318;29;20038;-86
2022/10/03 12:04:19;;;;;;;6.22;1.50;;;18.40;99.90;;;;;;4830834;29;20221;-88
2022/10/03 12:10:31;;;;;;;3.10;1.10;;;18.10;1.00;;;;;;4846671;29;20046;-87
2022/10/03 12:13:03;;;;;;;6.68;1.38;;;18.90;99.90;;;;;;4846575;29;20168;-86
2022/10/03 12:15:53;;;;;;;5.13;1.23;;;18.80;99.90;;;;;;4860070;29;20071;-88
2022/10/03 12:18:47;;;;;;;5.38;1.35;;;19.00;1.00;;;;;;4838087;29;20368;-87
2022/10/03 12:21:39;;;;;;;6.75;1.58;;;19.10;99.90;;;;;;4823560;29;20045;-87
2022/10/03 12:24:19;;;;;;;5.53;1.45;;;19.10;1.00;;;;;;4834263;29;20113;-87
2022/10/03 12:27:10;;;;;;;3.10;1.25;;;19.00;99.90;;;;;;4822353;29;20065;-87
2022/10/03 12:29:44;;;;;;;4.43;1.13;;;18.80;1.00;;;;;;4845281;29;20141;-87
2022/10/03 12:32:48;;;;;;;4.68;1.20;;;18.60;99.90;;;;;;4829525;29;20482;-88
2022/10/03 12:35:32;;;;;;;4.57;1.00;;;18.40;99.90;;;;;;4815477;29;20041;-87
2022/10/03 12:37:57;;;;;;;7.20;1.40;;;18.60;1.00;;;;;;4849340;29;20178;-88
2022/10/03 12:40:44;;;;;;;3.85;1.20;;;18.70;99.90;;;;;;4843995;29;20447;-87
2022/10/03 12:43:33;;;;;;;5.13;1.37;;;18.40;99.90;;;;;;4820571;29;20140;-88
2022/10/03 12:46:08;;;;;;;4.75;1.15;;;18.50;99.90;;;;;;4849719;29;20132;-87
2022/10/03 12:48:49;;;;;;;5.25;1.30;;;18.40;99.90;;;;;;4823526;29;20203;-88
2022/10/03 12:51:34;;;;;;;6.55;1.30;;;18.30;1.00;;;;;;4833553;29;20145;-88
2022/10/03 12:54:18;;;;;;;4.38;1.17;;;18.60;99.90;;;;;;4833721;29;20077;-87
2022/10/03 12:57:19;;;;;;;6.00;1.60;;;18.80;99.90;;;;;;4838659;29;20046;-87
2022/10/03 13:00:01;;;;;;;5.90;1.50;;;18.80;1.00;;;;;;4847832;29;20056;-87
2022/10/03 13:02:42;;;;;;;5.10;1.48;;;18.80;99.90;;;;;;4878087;29;20045;-87
2022/10/03 13:05:53;;;;;;;5.00;1.52;;;18.50;1.00;;;;;;4850255;29;20037;-88
2022/10/03 13:08:53;;;;;;;5.72;1.30;;;18.60;1.00;;;;;;4847484;29;20138;-86
2022/10/03 13:11:53;;;;;;;5.35;1.05;;;18.60;1.00;;;;;;4828112;29;20552;-87
2022/10/03 13:14:45;;;;;;;5.53;1.27;;;18.70;99.90;;;;;;4870950;29;20056;-86
2022/10/03 13:17:28;;;;;;;4.45;1.15;;;19.00;99.90;;;;;;4863352;29;20053;-87
2022/10/03 13:20:19;;;;;;;4.63;1.10;;;18.90;99.90;;;;;;4865508;29;20048;-86
2022/10/03 13:23:03;;;;;;;4.80;1.40;;;18.90;99.90;;;;;;4824016;29;20084;-88
2022/10/03 13:26:07;;;;;;;4.38;1.05;;;18.60;99.90;;;;;;4850599;29;20319;-87
2022/10/03 13:28:52;;;;;;;4.38;1.10;;;18.50;99.90;;;;;;4868719;29;20389;-87
2022/10/03 13:31:25;;;;;;;7.80;1.15;;;18.80;14.20;;;;;;4837115;29;20504;-87
2022/10/03 13:33:56;;;;;;;3.35;0.98;;;18.80;1.00;;;;;;4847064;29;20046;-87
2022/10/03 13:36:33;;;;;;;5.22;1.40;;;18.50;99.90;;;;;;4856338;29;20493;-86
2022/10/03 13:39:08;;;;;;;5.65;1.55;;;18.40;99.90;;;;;;4870991;29;20380;-88
2022/10/03 13:41:54;;;;;;;8.00;1.30;;;18.60;99.90;;;;;;4824439;29;20112;-86
2022/10/03 13:44:40;;;;;;;5.20;1.52;;;18.40;99.90;;;;;;4884015;29;20037;-87
2022/10/03 13:47:45;;;;;;;5.78;1.40;;;19.10;1.00;;;;;;4880430;29;20055;-87
2022/10/03 13:50:16;;;;;;;3.83;1.10;;;19.10;1.00;;;;;;4826392;29;20046;-87
2022/10/03 13:53:12;;;;;;;4.75;1.27;;;19.20;52.40;;;;;;4870420;29;20049;-86
2022/10/03 13:55:38;;;;;;;;;;;19.10;99.90;;;;;;4853325;29;20570;-88
2022/10/03 13:58:18;;;;;;;4.43;1.30;;;19.30;1.00;;;;;;4836367;29;19953;-88
2022/10/03 14:01:13;;;;;;;10.10;1.45;;;19.20;99.90;;;;;;4849996;29;20164;-86
2022/10/03 14:03:57;;;;;;;3.90;1.00;;;19.30;99.90;;;;;;4865745;29;20136;-88
2022/10/03 14:06:43;;;;;;;4.65;1.10;;;19.70;99.90;;;;;;4882215;29;20059;-87
2022/10/03 14:09:20;;;;;;;5.10;1.10;;;19.20;99.90;;;;;;4871705;29;20398;-87
2022/10/03 14:12:07;;;;;;;5.70;1.05;;;18.80;99.90;;;;;;4856356;29;20049;-87
2022/10/03 14:14:51;;;;;;;2.85;1.13;;;19.20;99.90;;;;;;4851994;29;20045;-85
2022/10/03 14:17:27;;;;;;;2.65;0.98;;;19.10;99.90;;;;;;4853673;29;20048;-87
2022/10/03 14:20:29;;;;;;;4.28;1.02;;;19.20;99.30;;;;;;4841603;29;20300;-87
2022/10/03 14:23:06;;;;;;;3.75;1.27;;;19.20;1.00;;;;;;4850075;29;20148;-86
2022/10/03 14:25:51;;;;;;;4.63;1.20;;;19.30;99.90;;;;;;4864633;29;20052;-89
2022/10/03 14:28:40;;;;;;;4.25;1.27;;;19.50;99.90;;;;;;4849021;29;20038;-87
2022/10/03 14:31:30;;;;;;;5.07;1.30;;;19.50;1.00;;;;;;4850346;29;20097;-88
2022/10/03 14:34:13;;;;;;;3.15;1.00;;;19.40;40.70;;;;;;4863531;29;20345;-88
2022/10/03 14:36:44;;;;;;;3.85;1.08;;;19.60;99.90;;;;;;4856775;29;20101;-88
2022/10/03 14:39:51;;;;;;;5.38;1.45;;;19.40;1.00;;;;;;4849577;29;20125;-87
2022/10/03 14:42:57;;;;;;;5.93;1.30;;;18.80;1.00;;;;;;4868777;29;20045;-88